KOVE/OVE METAR and TAF weather

Enter ICAO airport designator
Station Type Date Time Source
KOVE METAR 2022/06/26 07:53 UTC NOAA

KOVE 260753Z AUTO 00000KT 10SM CLR 24/07 A2990 RMK AO2 SLP123 T02440072 404000183


Station Type Date Time Source
KOVE Decoded METAR 2022/06/26 07:53 UTC NOAA

OROVILLE MUNICIPAL AIRPORT, CA, United States (KOVE) 39-30N 121-37W 58M
Jun 26, 2022 - 03:53 AM EDT / 2022.06.26 0753 UTC
Wind: Calm:0
Visibility: 10 mile(s):0
Sky conditions: clear
Temperature: 75.9 F (24.4 C)
Dew Point: 45.0 F (7.2 C)
Relative Humidity: 33%
Pressure (altimeter): 29.9 in. Hg (1012 hPa)
ob: KOVE 260753Z AUTO 00000KT 10SM CLR 24/07 A2990 RMK AO2 SLP123 T02440072 404000183
cycle: 8

Station Type Date Time Source
KOVE TAF UTC NOAA

Error!

Example: see airport list